createdAt,value
2022-08-04T00:00:13.394Z,7.93
2022-08-04T00:03:07.645Z,7.78
2022-08-04T00:05:48.565Z,7.72
2022-08-04T00:08:20.960Z,7.90
2022-08-04T00:10:55.354Z,7.57
2022-08-04T00:13:27.492Z,7.63
2022-08-04T00:16:07.005Z,7.60
2022-08-04T00:18:50.743Z,7.43
2022-08-04T00:21:20.696Z,7.40
2022-08-04T00:24:10.347Z,6.95
2022-08-04T00:26:36.267Z,7.60
2022-08-04T00:29:02.722Z,7.10
2022-08-04T00:31:33.376Z,7.32
2022-08-04T00:34:16.559Z,7.60
2022-08-04T00:36:44.086Z,7.38
2022-08-04T00:39:15.789Z,7.87
2022-08-04T00:42:10.883Z,7.40
2022-08-04T00:45:02.158Z,6.78
2022-08-04T00:47:54.266Z,7.47
2022-08-04T00:50:46.148Z,7.32
2022-08-04T00:53:32.968Z,7.10
2022-08-04T00:56:25.008Z,6.88
2022-08-04T00:59:18.794Z,7.07
2022-08-04T01:01:58.807Z,7.38
2022-08-04T01:04:54.957Z,6.85
2022-08-04T01:07:42.396Z,7.10
2022-08-04T01:10:40.773Z,6.75
2022-08-04T01:13:22.260Z,7.30
2022-08-04T01:15:56.527Z,6.63
2022-08-04T01:18:55.561Z,6.88
2022-08-04T01:21:27.819Z,7.00
2022-08-04T01:24:24.722Z,7.13
2022-08-04T01:27:03.902Z,7.57
2022-08-04T01:29:58.967Z,6.60
2022-08-04T01:32:34.374Z,7.55
2022-08-04T01:35:03.553Z,7.40
2022-08-04T01:38:00.762Z,7.70
2022-08-04T01:40:28.033Z,8.00
2022-08-04T01:42:55.532Z,7.60
2022-08-04T01:45:24.964Z,7.25
2022-08-04T01:47:56.104Z,7.43
2022-08-04T01:50:23.656Z,7.57
2022-08-04T01:52:53.639Z,7.50
2022-08-04T01:55:21.013Z,7.75
2022-08-04T01:57:50.229Z,7.57
2022-08-04T02:00:20.988Z,7.15
2022-08-04T02:02:48.184Z,7.20
2022-08-04T02:05:17.485Z,7.63
2022-08-04T02:08:08.672Z,7.13
2022-08-04T02:11:01.234Z,7.28
2022-08-04T02:13:56.930Z,7.53
2022-08-04T02:16:52.457Z,7.00
2022-08-04T02:19:32.492Z,7.53
2022-08-04T02:22:09.939Z,7.88
2022-08-04T02:24:58.743Z,7.63
2022-08-04T02:27:59.780Z,7.47
2022-08-04T02:30:19.287Z,7.32
2022-08-04T02:32:48.671Z,7.57
2022-08-04T02:35:19.814Z,7.57
2022-08-04T02:37:49.164Z,7.55
2022-08-04T02:40:20.885Z,7.80
2022-08-04T02:42:47.937Z,7.55
2022-08-04T02:45:19.095Z,7.65
2022-08-04T02:48:23.615Z,7.82
2022-08-04T02:50:34.772Z,7.40
2022-08-04T02:53:04.125Z,7.40
2022-08-04T02:55:37.647Z,7.28
2022-08-04T02:58:05.143Z,7.90
2022-08-04T03:00:32.543Z,7.85
2022-08-04T03:03:05.051Z,7.65
2022-08-04T03:06:01.591Z,7.37
2022-08-04T03:08:46.976Z,7.82
2022-08-04T03:11:31.435Z,8.18
2022-08-04T03:14:16.572Z,8.00
2022-08-04T03:17:08.379Z,7.35
2022-08-04T03:20:15.388Z,7.90
2022-08-04T03:23:32.940Z,8.25
2022-08-04T03:26:28.415Z,8.10
2022-08-04T03:29:13.370Z,8.27
2022-08-04T03:32:09.416Z,8.15
2022-08-04T03:35:11.018Z,8.50
2022-08-04T03:37:49.142Z,7.97
2022-08-04T03:40:37.724Z,8.32
2022-08-04T03:43:57.114Z,7.97
2022-08-04T03:46:49.580Z,7.90
2022-08-04T03:49:53.855Z,8.07
2022-08-04T03:53:12.224Z,8.35
2022-08-04T03:55:44.280Z,7.50
2022-08-04T03:58:25.344Z,7.63
2022-08-04T04:01:21.233Z,7.80
2022-08-04T04:04:17.731Z,7.63
2022-08-04T04:07:01.378Z,7.50
2022-08-04T04:10:08.180Z,7.20
2022-08-04T04:12:46.712Z,7.85
2022-08-04T04:15:34.927Z,7.90
2022-08-04T04:18:23.101Z,7.70
2022-08-04T04:21:08.098Z,8.25
2022-08-04T04:23:55.698Z,7.95
2022-08-04T04:26:46.569Z,8.35
2022-08-04T04:29:18.409Z,7.40
2022-08-04T04:32:04.488Z,7.23
2022-08-04T04:34:33.504Z,7.28
2022-08-04T04:37:05.899Z,7.60
2022-08-04T04:39:39.371Z,7.13
2022-08-04T04:42:31.985Z,7.80
2022-08-04T04:45:47.154Z,7.20
2022-08-04T04:48:51.527Z,7.63
2022-08-04T04:51:42.204Z,7.45
2022-08-04T04:54:50.362Z,7.20
2022-08-04T04:57:54.265Z,7.18
2022-08-04T05:00:13.733Z,6.40
2022-08-04T05:03:01.108Z,6.50
2022-08-04T05:06:06.015Z,6.30
2022-08-04T05:08:50.008Z,5.72
2022-08-04T05:11:35.492Z,6.10
2022-08-04T05:14:37.969Z,6.47
2022-08-04T05:17:04.627Z,6.30
2022-08-04T05:20:03.009Z,6.38
2022-08-04T05:22:42.311Z,6.03
2022-08-04T05:25:18.444Z,6.72
2022-08-04T05:28:03.535Z,6.43
2022-08-04T05:30:32.834Z,6.07
2022-08-04T05:33:04.295Z,6.40
2022-08-04T05:35:50.537Z,6.40
2022-08-04T05:38:26.353Z,6.50
2022-08-04T05:40:54.724Z,6.73
2022-08-04T05:43:23.608Z,6.28
2022-08-04T05:45:51.760Z,6.93
2022-08-04T05:48:19.516Z,6.50
2022-08-04T05:50:47.372Z,6.90
2022-08-04T05:53:16.651Z,6.30
2022-08-04T05:55:57.129Z,6.82
2022-08-04T05:58:29.448Z,6.40
2022-08-04T06:00:56.820Z,6.78
2022-08-04T06:03:24.282Z,7.40
2022-08-04T06:05:51.911Z,6.77
2022-08-04T06:08:18.494Z,6.97
2022-08-04T06:10:46.410Z,6.90
2022-08-04T06:13:48.743Z,7.55
2022-08-04T06:16:06.567Z,7.60
2022-08-04T06:20:00.686Z,7.33
2022-08-04T06:21:24.903Z,7.30
2022-08-04T06:24:00.892Z,7.75
2022-08-04T06:26:33.806Z,7.22
2022-08-04T06:29:02.398Z,8.07
2022-08-04T06:32:31.491Z,8.47
2022-08-04T06:34:31.826Z,7.85
2022-08-04T06:36:59.144Z,7.20
2022-08-04T06:39:27.924Z,7.50
2022-08-04T06:42:17.411Z,7.40
2022-08-04T06:44:42.849Z,8.47
2022-08-04T06:47:10.753Z,7.78
2022-08-04T06:49:55.014Z,8.40
2022-08-04T06:52:28.621Z,7.63
2022-08-04T06:54:56.988Z,7.93
2022-08-04T06:57:27.212Z,7.63
2022-08-04T07:00:06.172Z,8.07
2022-08-04T07:02:38.780Z,8.35
2022-08-04T07:05:08.531Z,7.68
2022-08-04T07:07:56.509Z,7.80
2022-08-04T07:10:24.373Z,7.18
2022-08-04T07:12:52.962Z,8.98
2022-08-04T07:15:21.243Z,7.57
2022-08-04T07:17:49.702Z,7.75
2022-08-04T07:20:33.033Z,7.95
2022-08-04T07:23:07.470Z,7.75
2022-08-04T07:26:00.496Z,7.72
2022-08-04T07:28:25.057Z,7.25
2022-08-04T07:30:53.244Z,7.95
2022-08-04T07:33:20.846Z,8.30
2022-08-04T07:36:05.728Z,7.90
2022-08-04T07:38:48.746Z,7.28
2022-08-04T07:41:37.403Z,6.95
2022-08-04T07:44:04.634Z,7.90
2022-08-04T07:46:31.682Z,7.93
2022-08-04T07:49:00.591Z,7.45
2022-08-04T07:51:28.897Z,7.28
2022-08-04T07:53:57.104Z,7.60
2022-08-04T07:56:24.555Z,8.20
2022-08-04T07:58:50.970Z,7.97
2022-08-04T08:01:19.109Z,6.80
2022-08-04T08:03:46.755Z,7.88
2022-08-04T08:06:21.077Z,8.20
2022-08-04T08:09:12.133Z,8.07
2022-08-04T08:12:35.112Z,7.68
2022-08-04T08:14:28.827Z,8.98
2022-08-04T08:16:55.263Z,7.38
2022-08-04T08:19:21.833Z,7.93
2022-08-04T08:21:59.266Z,7.05
2022-08-04T08:24:28.164Z,8.37
2022-08-04T08:26:55.895Z,7.85
2022-08-04T08:29:23.184Z,7.93
2022-08-04T08:31:57.052Z,8.45
2022-08-04T08:34:27.423Z,8.90
2022-08-04T08:37:04.606Z,8.47
2022-08-04T08:39:40.519Z,8.60
2022-08-04T08:42:12.894Z,7.38
2022-08-04T08:44:48.682Z,7.53
2022-08-04T08:48:05.131Z,7.53
2022-08-04T08:50:35.312Z,7.93
2022-08-04T08:53:47.520Z,7.10
2022-08-04T08:56:21.047Z,7.38
2022-08-04T08:59:36.277Z,7.47
2022-08-04T09:02:25.814Z,6.65
2022-08-04T09:05:19.797Z,7.13
2022-08-04T09:08:12.843Z,7.00
2022-08-04T09:10:48.888Z,7.05
2022-08-04T09:13:27.600Z,6.88
2022-08-04T09:16:30.769Z,7.75
2022-08-04T09:19:37.646Z,8.00
2022-08-04T09:22:15.281Z,7.55
2022-08-04T09:24:55.120Z,7.50
2022-08-04T09:27:30.645Z,8.02
2022-08-04T09:30:02.977Z,6.95
2022-08-04T09:32:38.245Z,7.77
2022-08-04T09:35:19.915Z,7.25
2022-08-04T09:38:00.386Z,6.60
2022-08-04T09:40:53.717Z,6.22
2022-08-04T09:43:59.488Z,6.88
2022-08-04T09:46:34.344Z,7.17
2022-08-04T09:49:51.571Z,6.40
2022-08-04T09:52:31.592Z,8.00
2022-08-04T09:55:23.051Z,7.55
2022-08-04T09:58:17.101Z,7.53
2022-08-04T10:00:51.114Z,7.20
2022-08-04T10:03:20.815Z,7.63
2022-08-04T10:06:10.359Z,7.20
2022-08-04T10:08:57.186Z,8.18
2022-08-04T10:11:56.154Z,7.60
2022-08-04T10:14:47.883Z,6.90
2022-08-04T10:17:26.233Z,7.18
2022-08-04T10:20:04.392Z,6.95
2022-08-04T10:22:55.453Z,7.72
2022-08-04T10:26:05.853Z,7.28
2022-08-04T10:28:29.639Z,7.13
2022-08-04T10:31:00.837Z,7.40
2022-08-04T10:33:50.161Z,7.47
2022-08-04T10:36:22.133Z,7.50
2022-08-04T10:39:06.025Z,7.47
2022-08-04T10:41:49.879Z,7.50
2022-08-04T10:44:47.833Z,8.15
2022-08-04T10:47:18.530Z,7.50
2022-08-04T10:49:47.222Z,7.70
2022-08-04T10:52:44.004Z,7.10
2022-08-04T10:55:19.220Z,8.43
2022-08-04T10:58:09.729Z,8.65
2022-08-04T11:00:41.913Z,8.65
2022-08-04T11:03:17.564Z,8.40
2022-08-04T11:05:49.950Z,8.20
2022-08-04T11:08:35.497Z,8.27
2022-08-04T11:11:17.573Z,6.97
2022-08-04T11:14:04.151Z,7.25
2022-08-04T11:16:51.997Z,7.60
2022-08-04T11:19:48.814Z,7.63
2022-08-04T11:22:22.141Z,7.50
2022-08-04T11:24:58.666Z,7.95
2022-08-04T11:27:45.081Z,7.13
2022-08-04T11:30:13.794Z,6.85
2022-08-04T11:32:52.033Z,7.38
2022-08-04T11:35:57.693Z,6.57
2022-08-04T11:39:01.650Z,8.20
2022-08-04T11:41:36.811Z,8.02
2022-08-04T11:44:10.426Z,8.05
2022-08-04T11:46:52.185Z,6.85
2022-08-04T11:49:57.494Z,7.60
2022-08-04T11:52:26.862Z,6.90
2022-08-04T11:54:54.963Z,7.05
2022-08-04T11:57:35.296Z,7.30
2022-08-04T12:00:08.635Z,5.97
2022-08-04T12:03:12.355Z,6.50
2022-08-04T12:06:15.412Z,6.00
2022-08-04T12:09:12.900Z,5.72
2022-08-04T12:11:59.286Z,6.38
2022-08-04T12:14:41.181Z,6.25
2022-08-04T12:17:10.541Z,6.53
2022-08-04T12:20:03.858Z,6.20
2022-08-04T12:22:36.937Z,6.30
2022-08-04T12:25:14.329Z,6.10
2022-08-04T12:27:52.230Z,5.90
2022-08-04T12:30:58.445Z,7.50
2022-08-04T12:33:20.477Z,6.40
2022-08-04T12:36:05.298Z,6.22
2022-08-04T12:38:47.129Z,5.75
2022-08-04T12:41:18.048Z,6.68
2022-08-04T12:43:47.240Z,8.60
2022-08-04T12:46:22.169Z,10.05
2022-08-04T12:48:50.249Z,8.80
2022-08-04T12:52:06.469Z,22.65
2022-08-04T12:54:06.875Z,22.00
2022-08-04T12:56:34.012Z,18.63
2022-08-04T12:59:04.025Z,19.23
2022-08-04T13:02:10.270Z,17.13
2022-08-04T13:04:21.704Z,15.40
2022-08-04T13:07:02.054Z,14.25
2022-08-04T13:09:34.010Z,14.50
2022-08-04T13:12:11.352Z,13.82
2022-08-04T13:14:45.061Z,13.68
2022-08-04T13:17:12.267Z,13.02
2022-08-04T13:19:41.358Z,12.90
2022-08-04T13:22:08.753Z,12.57
2022-08-04T13:25:17.893Z,11.98
2022-08-04T13:27:25.526Z,10.98
2022-08-04T13:29:58.836Z,9.60
2022-08-04T13:32:28.752Z,5.88
2022-08-04T13:34:56.359Z,5.82
2022-08-04T13:37:31.841Z,5.05
2022-08-04T13:39:59.899Z,7.63
2022-08-04T13:42:27.389Z,11.07
2022-08-04T13:44:59.838Z,11.48
2022-08-04T13:47:34.065Z,9.50
2022-08-04T13:50:11.805Z,9.15
2022-08-04T13:52:40.278Z,7.60
2022-08-04T13:55:07.417Z,7.30
2022-08-04T13:57:42.976Z,11.10
2022-08-04T14:00:10.915Z,14.23
2022-08-04T14:03:02.438Z,13.80
2022-08-04T14:05:35.366Z,10.65
2022-08-04T14:08:27.360Z,9.98
2022-08-04T14:10:57.643Z,10.07
2022-08-04T14:13:41.281Z,9.43
2022-08-04T14:16:20.518Z,10.70
2022-08-04T14:18:47.654Z,9.93
2022-08-04T14:21:16.625Z,8.75
2022-08-04T14:23:47.426Z,8.35
2022-08-04T14:26:35.318Z,7.05
2022-08-04T14:29:26.883Z,7.70
2022-08-04T14:32:01.178Z,9.05
2022-08-04T14:34:29.962Z,7.72
2022-08-04T14:37:16.919Z,8.05
2022-08-04T14:40:19.185Z,8.60
2022-08-04T14:42:41.722Z,11.55
2022-08-04T14:45:08.737Z,9.45
2022-08-04T14:47:52.434Z,7.82
2022-08-04T14:50:20.213Z,8.13
2022-08-04T14:52:46.678Z,9.25
2022-08-04T14:55:24.242Z,7.22
2022-08-04T14:58:35.690Z,6.80
2022-08-04T15:00:38.326Z,7.50
2022-08-04T15:03:10.237Z,9.93
2022-08-04T15:05:55.021Z,9.20
2022-08-04T15:08:31.439Z,8.80
2022-08-04T15:11:02.161Z,7.30
2022-08-04T15:13:29.774Z,5.93
2022-08-04T15:16:06.667Z,5.82
2022-08-04T15:18:36.150Z,4.80
2022-08-04T15:21:04.640Z,4.30
2022-08-04T15:23:31.758Z,3.78
2022-08-04T15:26:09.894Z,5.20
2022-08-04T15:28:38.345Z,5.60
2022-08-04T15:31:10.518Z,5.25
2022-08-04T15:33:55.040Z,5.55
2022-08-04T15:36:31.554Z,5.30
2022-08-04T15:39:16.618Z,5.28
2022-08-04T15:42:01.877Z,4.40
2022-08-04T15:44:58.568Z,3.95
2022-08-04T15:47:25.543Z,3.60
2022-08-04T15:50:10.286Z,3.78
2022-08-04T15:53:13.139Z,3.25
2022-08-04T15:55:42.050Z,3.53
2022-08-04T15:58:11.326Z,3.53
2022-08-04T16:00:49.756Z,3.60
2022-08-04T16:04:00.334Z,3.80
2022-08-04T16:06:20.994Z,3.97
2022-08-04T16:08:47.351Z,3.83
2022-08-04T16:11:30.938Z,3.90
2022-08-04T16:13:59.590Z,4.05
2022-08-04T16:16:34.145Z,3.50
2022-08-04T16:19:05.371Z,3.30
2022-08-04T16:21:33.963Z,3.40
2022-08-04T16:24:17.953Z,4.03
2022-08-04T16:26:54.821Z,3.63
2022-08-04T16:29:22.681Z,3.42
2022-08-04T16:32:10.304Z,3.35
2022-08-04T16:34:58.780Z,3.38
2022-08-04T16:37:33.125Z,3.67
2022-08-04T16:40:34.620Z,3.55
2022-08-04T16:43:09.820Z,3.20
2022-08-04T16:45:49.231Z,3.47
2022-08-04T16:48:17.800Z,3.47
2022-08-04T16:50:56.310Z,3.65
2022-08-04T16:53:58.687Z,4.25
2022-08-04T16:56:18.765Z,3.92
2022-08-04T16:58:54.192Z,3.50
2022-08-04T17:01:32.714Z,3.65
2022-08-04T17:04:05.077Z,3.47
2022-08-04T17:06:40.511Z,3.53
2022-08-04T17:09:10.853Z,3.10
2022-08-04T17:11:37.479Z,3.20
2022-08-04T17:14:05.855Z,2.90
2022-08-04T17:16:38.183Z,3.10
2022-08-04T17:19:06.284Z,3.17
2022-08-04T17:21:34.529Z,3.40
2022-08-04T17:24:15.446Z,3.10
2022-08-04T17:26:54.138Z,3.13
2022-08-04T17:29:21.878Z,2.95
2022-08-04T17:31:48.338Z,3.73
2022-08-04T17:34:19.221Z,2.78
2022-08-04T17:36:47.597Z,2.72
2022-08-04T17:39:17.721Z,2.67
2022-08-04T17:41:48.946Z,2.75
2022-08-04T17:44:16.602Z,3.07
2022-08-04T17:46:48.123Z,2.90
2022-08-04T17:49:18.086Z,3.10
2022-08-04T17:52:06.910Z,3.67
2022-08-04T17:54:39.949Z,3.47
2022-08-04T17:57:27.242Z,3.30
2022-08-04T17:59:58.801Z,3.10
2022-08-04T18:05:54.030Z,3.33
2022-08-04T18:08:34.730Z,3.10
2022-08-04T18:11:01.693Z,3.07
2022-08-04T18:13:28.472Z,3.00
2022-08-04T18:16:05.355Z,3.30
2022-08-04T18:18:32.160Z,3.13
2022-08-04T18:21:03.356Z,3.03
2022-08-04T18:23:32.579Z,3.37
2022-08-04T18:26:01.996Z,3.67
2022-08-04T18:28:29.233Z,3.40
2022-08-04T18:30:59.464Z,3.55
2022-08-04T18:33:40.256Z,3.25
2022-08-04T18:36:33.076Z,3.23
2022-08-04T18:39:13.636Z,3.47
2022-08-04T18:42:01.444Z,3.55
2022-08-04T18:44:32.089Z,3.70
2022-08-04T18:47:19.459Z,3.75
2022-08-04T18:51:00.984Z,4.33
2022-08-04T18:52:33.299Z,4.05
2022-08-04T18:55:01.569Z,3.80
2022-08-04T18:57:59.878Z,3.92
2022-08-04T19:00:17.604Z,3.75
2022-08-04T19:02:46.669Z,3.87
2022-08-04T19:05:17.489Z,3.88
2022-08-04T19:08:01.815Z,4.20
2022-08-04T19:10:29.082Z,3.92
2022-08-04T19:12:56.024Z,4.70
2022-08-04T19:15:22.512Z,4.53
2022-08-04T19:18:01.102Z,4.95
2022-08-04T19:20:29.325Z,4.50
2022-08-04T19:24:10.929Z,5.00
2022-08-04T19:26:02.754Z,5.05
2022-08-04T19:28:36.214Z,4.73
2022-08-04T19:31:08.427Z,4.75
2022-08-04T19:33:58.970Z,4.70
2022-08-04T19:36:28.345Z,5.03
2022-08-04T19:38:57.184Z,5.32
2022-08-04T19:41:26.784Z,4.87
2022-08-04T19:43:53.913Z,8.18
2022-08-04T19:46:21.314Z,5.50
2022-08-04T19:48:59.350Z,5.88
2022-08-04T19:51:30.541Z,5.50
2022-08-04T19:54:04.296Z,5.67
2022-08-04T19:56:40.858Z,6.15
2022-08-04T19:59:08.584Z,6.22
2022-08-04T20:01:43.740Z,5.70
2022-08-04T20:04:11.503Z,6.00
2022-08-04T20:06:39.127Z,6.23
2022-08-04T20:09:26.106Z,6.38
2022-08-04T20:11:52.152Z,6.22
2022-08-04T20:14:19.572Z,6.35
2022-08-04T20:16:58.679Z,6.47
2022-08-04T20:19:25.633Z,6.00
2022-08-04T20:21:56.385Z,5.75
2022-08-04T20:24:40.482Z,6.13
2022-08-04T20:27:15.234Z,6.10
2022-08-04T20:30:00.907Z,5.38
2022-08-04T20:32:27.991Z,5.67
2022-08-04T20:34:55.889Z,5.88
2022-08-04T20:37:24.647Z,5.57
2022-08-04T20:39:58.678Z,5.97
2022-08-04T20:42:33.756Z,4.72
2022-08-04T20:45:01.447Z,4.50
2022-08-04T20:47:35.175Z,4.18
2022-08-04T20:50:08.996Z,4.03
2022-08-04T20:52:37.097Z,4.70
2022-08-04T20:55:05.790Z,4.22
2022-08-04T20:57:47.922Z,4.50
2022-08-04T21:00:17.570Z,4.43
2022-08-04T21:02:53.183Z,4.40
2022-08-04T21:05:20.228Z,4.60
2022-08-04T21:07:49.020Z,4.60
2022-08-04T21:10:15.823Z,4.30
2022-08-04T21:12:43.578Z,4.40
2022-08-04T21:15:24.766Z,4.60
2022-08-04T21:17:59.104Z,4.70
2022-08-04T21:20:32.419Z,4.30
2022-08-04T21:23:01.974Z,4.73
2022-08-04T21:25:29.421Z,4.55
2022-08-04T21:27:58.886Z,4.72
2022-08-04T21:30:30.271Z,4.82
2022-08-04T21:32:56.693Z,5.13
2022-08-04T21:35:30.805Z,4.90
2022-08-04T21:38:13.979Z,4.75
2022-08-04T21:40:53.512Z,4.50
2022-08-04T21:43:21.049Z,4.63
2022-08-04T21:45:50.292Z,5.13
2022-08-04T21:48:17.072Z,5.10
2022-08-04T21:50:43.873Z,5.05
2022-08-04T21:53:16.812Z,5.00
2022-08-04T21:56:05.598Z,5.10
2022-08-04T21:58:33.047Z,5.30
2022-08-04T22:00:59.486Z,5.43
2022-08-04T22:03:52.336Z,5.20
2022-08-04T22:06:17.485Z,5.47
2022-08-04T22:08:49.363Z,5.43
2022-08-04T22:11:50.790Z,5.40
2022-08-04T22:14:29.563Z,5.40
2022-08-04T22:17:01.873Z,5.65
2022-08-04T22:19:49.752Z,5.80
2022-08-04T22:22:25.217Z,5.60
2022-08-04T22:24:53.630Z,5.22
2022-08-04T22:27:38.807Z,5.43
2022-08-04T22:30:13.331Z,5.60
2022-08-04T22:32:44.205Z,5.72
2022-08-04T22:35:43.928Z,6.10
2022-08-04T22:38:06.637Z,5.90
2022-08-04T22:40:44.073Z,5.53
2022-08-04T22:43:32.240Z,5.85
2022-08-04T22:46:02.067Z,5.70
2022-08-04T22:48:32.172Z,5.95
2022-08-04T22:50:59.184Z,6.30
2022-08-04T22:53:25.603Z,6.10
2022-08-04T22:56:07.359Z,5.68
2022-08-04T22:58:45.426Z,5.82
2022-08-04T23:01:18.036Z,5.90
2022-08-04T23:03:51.247Z,6.00
2022-08-04T23:06:24.520Z,5.93
2022-08-04T23:08:51.386Z,5.78
2022-08-04T23:11:17.928Z,6.05
2022-08-04T23:13:45.338Z,5.75
2022-08-04T23:16:12.290Z,5.68
2022-08-04T23:18:40.230Z,5.57
2022-08-04T23:21:08.994Z,5.78
2022-08-04T23:23:36.556Z,6.20
2022-08-04T23:26:12.996Z,5.97
2022-08-04T23:28:40.117Z,5.82
2022-08-04T23:31:07.043Z,5.80
2022-08-04T23:33:51.556Z,5.93
2022-08-04T23:36:19.403Z,5.90
2022-08-04T23:38:59.466Z,6.22
2022-08-04T23:41:26.633Z,6.00
2022-08-04T23:44:13.170Z,5.73
2022-08-04T23:46:49.760Z,5.88
2022-08-04T23:49:19.679Z,5.80
2022-08-04T23:51:46.055Z,6.60
2022-08-04T23:54:16.108Z,6.18
2022-08-04T23:56:52.054Z,5.93
2022-08-04T23:59:52.803Z,5.63
